Time;durP1;ratioP1;P1;durP2;ratioP2;P2;SDS_P1;SDS_P2;PMS_P1;PMS_P2;Temp;Humidity;BMP_temperature;BMP_pressure;BME280_temperature;BME280_humidity;BME280_pressure;Samples;Min_cycle;Max_cycle;Signal;HPM_P1;HPM_P2
2020/12/27 00:01:42;;;;;;;6.00;3.88;;;9.00;73.30;;;;;;5006666;28;20514;-75
2020/12/27 00:04:08;;;;;;;6.40;3.42;;;9.00;73.00;;;;;;5006989;28;20340;-74
2020/12/27 00:06:33;;;;;;;7.30;4.07;;;9.00;73.00;;;;;;5005710;28;20694;-75
2020/12/27 00:08:59;;;;;;;6.32;3.80;;;9.00;73.00;;;;;;5008220;28;20536;-75
2020/12/27 00:11:25;;;;;;;6.72;3.72;;;8.90;73.00;;;;;;4990939;28;20037;-74
2020/12/27 00:13:51;;;;;;;6.75;3.75;;;8.90;73.10;;;;;;5002858;28;20052;-73
2020/12/27 00:16:26;;;;;;;5.65;3.28;;;8.90;73.10;;;;;;5003913;28;20030;-73
2020/12/27 00:18:53;;;;;;;6.00;3.47;;;8.90;72.80;;;;;;5003287;28;20030;-74
2020/12/27 00:21:19;;;;;;;6.10;3.20;;;9.00;72.90;;;;;;4989617;28;20042;-73
2020/12/27 00:23:45;;;;;;;5.32;3.38;;;9.00;72.70;;;;;;4990210;28;20468;-73
2020/12/27 00:26:15;;;;;;;5.75;3.35;;;8.90;72.80;;;;;;4999573;28;20139;-74
2020/12/27 00:28:41;;;;;;;5.82;3.72;;;9.00;72.50;;;;;;5003152;28;20125;-73
2020/12/27 00:31:07;;;;;;;6.22;3.05;;;8.90;72.30;;;;;;4993993;28;20037;-74
2020/12/27 00:33:33;;;;;;;6.03;3.53;;;8.90;72.50;;;;;;5009581;28;20080;-74
2020/12/27 00:36:00;;;;;;;6.32;2.90;;;8.90;72.40;;;;;;4966616;28;20064;-73
2020/12/27 00:38:25;;;;;;;8.00;3.55;;;8.90;72.10;;;;;;4987361;28;20076;-73
2020/12/27 00:40:51;;;;;;;6.68;3.05;;;9.00;72.20;;;;;;4999462;28;20520;-74
2020/12/27 00:43:17;;;;;;;6.00;2.80;;;9.00;71.90;;;;;;5001253;28;20041;-73
2020/12/27 00:45:43;;;;;;;5.43;3.28;;;8.90;71.60;;;;;;4985506;28;20038;-73
2020/12/27 00:48:08;;;;;;;5.68;3.08;;;9.00;71.70;;;;;;4986507;28;20026;-72
2020/12/27 00:50:34;;;;;;;5.53;3.00;;;8.90;71.70;;;;;;4963606;28;20030;-72
2020/12/27 00:52:59;;;;;;;5.00;2.97;;;9.00;71.50;;;;;;5000820;28;20555;-73
2020/12/27 00:55:25;;;;;;;5.25;3.10;;;9.00;71.50;;;;;;4984555;28;20475;-72
2020/12/27 00:57:51;;;;;;;5.82;2.80;;;8.90;71.20;;;;;;4987331;28;20037;-72
2020/12/27 01:00:16;;;;;;;5.47;3.08;;;8.80;71.40;;;;;;4977281;28;20030;-73
2020/12/27 01:02:42;;;;;;;6.38;3.53;;;8.90;71.70;;;;;;4992791;28;20203;-72
2020/12/27 01:05:08;;;;;;;5.35;2.70;;;8.90;71.70;;;;;;4987886;28;20038;-74
2020/12/27 01:07:34;;;;;;;5.55;3.25;;;8.90;70.90;;;;;;5007878;28;20034;-73
2020/12/27 01:09:59;;;;;;;6.40;2.78;;;8.90;71.10;;;;;;5001142;28;20100;-73
2020/12/27 01:12:25;;;;;;;5.50;2.90;;;8.90;71.10;;;;;;4991598;28;20053;-73
2020/12/27 01:14:51;;;;;;;5.50;3.03;;;8.80;70.90;;;;;;5005311;28;20040;-73
2020/12/27 01:17:16;;;;;;;5.75;3.28;;;8.90;70.90;;;;;;5007135;28;20376;-73
2020/12/27 01:19:42;;;;;;;5.68;2.50;;;8.90;70.50;;;;;;5006933;28;20041;-73
2020/12/27 01:22:08;;;;;;;6.03;2.45;;;8.90;70.90;;;;;;4984340;28;20038;-74
2020/12/27 01:24:33;;;;;;;4.80;2.38;;;8.90;70.60;;;;;;4972015;28;20112;-74
2020/12/27 01:26:59;;;;;;;5.00;2.65;;;8.90;70.60;;;;;;5002133;28;20452;-74
2020/12/27 01:29:25;;;;;;;5.47;2.67;;;8.80;70.40;;;;;;5003853;28;20033;-74
2020/12/27 01:31:50;;;;;;;5.70;3.17;;;8.80;70.60;;;;;;4987806;28;20081;-74
2020/12/27 01:34:16;;;;;;;7.03;3.22;;;8.80;70.30;;;;;;5000834;28;20468;-73
2020/12/27 01:36:42;;;;;;;6.68;2.78;;;8.70;70.80;;;;;;4962374;28;20026;-73
2020/12/27 01:39:09;;;;;;;6.13;2.95;;;8.70;70.70;;;;;;5006510;28;20026;-73
2020/12/27 01:41:36;;;;;;;5.13;2.83;;;8.70;70.50;;;;;;5006778;28;20117;-73
2020/12/27 01:44:15;;;;;;;5.88;3.20;;;8.80;70.90;;;;;;4990186;28;20073;-73
2020/12/27 01:46:46;;;;;;;6.05;3.22;;;8.80;70.50;;;;;;4992589;28;20080;-73
2020/12/27 01:49:12;;;;;;;6.45;3.00;;;8.80;70.20;;;;;;5013221;28;20476;-73
2020/12/27 01:51:38;;;;;;;5.55;2.95;;;8.80;70.50;;;;;;4997272;28;20025;-74
2020/12/27 01:54:05;;;;;;;6.22;3.72;;;8.80;70.30;;;;;;5008353;28;20116;-73
2020/12/27 01:56:39;;;;;;;6.20;3.20;;;8.80;70.30;;;;;;4996070;28;20109;-73
2020/12/27 01:59:08;;;;;;;6.00;3.17;;;8.80;70.30;;;;;;5012946;28;20101;-73
2020/12/27 02:01:36;;;;;;;5.50;2.88;;;8.70;70.20;;;;;;5011839;28;20038;-73
2020/12/27 02:04:03;;;;;;;6.78;3.28;;;8.70;70.50;;;;;;5012758;28;20030;-73
2020/12/27 02:06:29;;;;;;;6.45;3.67;;;8.70;70.40;;;;;;5012425;28;20041;-74
2020/12/27 02:08:55;;;;;;;7.00;3.33;;;8.90;70.20;;;;;;5005439;28;20040;-73
2020/12/27 02:11:22;;;;;;;5.88;3.08;;;8.70;70.80;;;;;;5012356;28;20038;-73
2020/12/27 02:13:58;;;;;;;7.10;3.83;;;8.70;70.50;;;;;;5012660;28;20033;-73
2020/12/27 02:16:26;;;;;;;7.72;3.95;;;8.70;70.70;;;;;;5011890;28;20526;-73
2020/12/27 02:19:01;;;;;;;6.65;3.58;;;8.70;70.70;;;;;;5011726;28;20125;-74
2020/12/27 02:21:27;;;;;;;7.45;3.85;;;8.60;70.50;;;;;;4995219;28;20065;-73
2020/12/27 02:23:55;;;;;;;6.30;3.47;;;8.60;70.90;;;;;;4984496;28;20495;-73
2020/12/27 02:26:21;;;;;;;6.45;3.90;;;8.60;70.80;;;;;;5012304;28;20417;-73
2020/12/27 02:28:46;;;;;;;6.60;3.85;;;8.60;71.10;;;;;;5010981;28;20068;-73
2020/12/27 02:31:12;;;;;;;5.78;3.20;;;8.50;70.90;;;;;;5012341;28;20127;-74
2020/12/27 02:33:38;;;;;;;8.48;4.28;;;8.50;71.00;;;;;;5007960;28;20057;-73
2020/12/27 02:36:03;;;;;;;7.93;3.80;;;8.50;71.20;;;;;;4993525;28;20475;-73
2020/12/27 02:38:29;;;;;;;7.25;3.58;;;8.40;71.40;;;;;;5012502;28;20041;-73
2020/12/27 02:40:55;;;;;;;6.55;3.65;;;8.50;71.30;;;;;;5011904;28;20033;-73
2020/12/27 02:43:20;;;;;;;6.65;3.65;;;8.60;70.80;;;;;;5012212;28;20068;-73
2020/12/27 02:45:47;;;;;;;6.88;3.83;;;8.50;70.90;;;;;;5000820;28;20065;-73
2020/12/27 02:48:13;;;;;;;7.10;3.58;;;8.50;71.10;;;;;;5012313;28;20034;-73
2020/12/27 02:50:39;;;;;;;10.98;4.68;;;8.50;71.20;;;;;;4998578;28;20046;-72
2020/12/27 02:53:05;;;;;;;8.30;3.97;;;8.40;71.10;;;;;;4995037;28;20499;-73
2020/12/27 02:55:32;;;;;;;7.95;3.83;;;8.40;71.30;;;;;;4993505;28;20664;-74
2020/12/27 02:57:58;;;;;;;7.63;3.97;;;8.40;71.40;;;;;;5010817;28;20109;-73
2020/12/27 03:00:29;;;;;;;6.45;3.45;;;8.50;71.40;;;;;;5010777;28;20112;-74
2020/12/27 03:02:55;;;;;;;7.22;3.58;;;8.50;71.00;;;;;;5000490;28;20041;-73
2020/12/27 03:05:21;;;;;;;10.23;4.38;;;8.60;70.90;;;;;;5005111;28;20044;-73
2020/12/27 03:07:46;;;;;;;7.32;3.63;;;8.50;70.90;;;;;;5011532;28;20064;-74
2020/12/27 03:10:12;;;;;;;8.85;3.78;;;8.60;70.80;;;;;;5010799;28;20029;-74
2020/12/27 03:12:38;;;;;;;7.47;4.32;;;8.50;70.80;;;;;;4995168;28;20122;-73
2020/12/27 03:15:03;;;;;;;5.78;3.20;;;8.40;71.00;;;;;;4980582;28;20050;-73
2020/12/27 03:17:29;;;;;;;8.02;3.72;;;8.50;71.10;;;;;;4987388;28;20026;-73
2020/12/27 03:19:54;;;;;;;6.18;3.30;;;8.50;70.90;;;;;;4980107;28;20084;-72
2020/12/27 03:22:20;;;;;;;7.18;3.53;;;8.60;70.80;;;;;;5009733;28;20509;-73
2020/12/27 03:24:46;;;;;;;6.00;3.30;;;8.60;70.70;;;;;;5005702;28;20133;-73
2020/12/27 03:27:11;;;;;;;7.82;4.47;;;8.60;70.80;;;;;;5010476;28;20084;-73
2020/12/27 03:29:37;;;;;;;6.32;2.97;;;8.50;70.70;;;;;;4996373;28;20041;-73
2020/12/27 03:32:03;;;;;;;6.13;3.22;;;8.60;70.60;;;;;;5004615;28;20235;-73
2020/12/27 03:34:28;;;;;;;7.40;3.58;;;8.50;70.50;;;;;;4997869;28;20105;-73
2020/12/27 03:36:54;;;;;;;5.90;3.55;;;8.50;70.70;;;;;;5004904;28;20038;-73
2020/12/27 03:39:20;;;;;;;7.13;3.58;;;8.50;70.90;;;;;;5010537;28;20476;-73
2020/12/27 03:41:45;;;;;;;8.93;3.70;;;8.50;71.00;;;;;;4993907;28;20029;-73
2020/12/27 03:44:11;;;;;;;7.00;3.53;;;8.60;70.90;;;;;;5010744;28;20038;-73
2020/12/27 03:46:36;;;;;;;6.78;3.38;;;8.60;70.60;;;;;;4993841;28;20444;-73
2020/12/27 03:49:02;;;;;;;6.72;3.20;;;8.60;70.90;;;;;;5010834;28;20400;-73
2020/12/27 03:51:28;;;;;;;6.38;3.40;;;8.60;70.90;;;;;;5008606;28;20030;-73
2020/12/27 03:53:53;;;;;;;6.53;3.53;;;8.60;70.90;;;;;;4993538;28;20038;-73
2020/12/27 03:56:23;;;;;;;6.50;3.28;;;8.60;71.30;;;;;;5011070;28;20447;-73
2020/12/27 03:58:48;;;;;;;9.88;3.20;;;8.50;71.40;;;;;;4996753;28;20105;-73
2020/12/27 04:01:14;;;;;;;6.88;3.75;;;8.50;71.50;;;;;;5009681;28;20117;-72
2020/12/27 04:03:40;;;;;;;6.03;3.22;;;8.50;71.80;;;;;;4979544;28;20041;-73
2020/12/27 04:06:06;;;;;;;7.00;3.97;;;8.50;71.40;;;;;;5009024;28;20136;-73
2020/12/27 04:08:31;;;;;;;6.25;2.95;;;8.50;71.30;;;;;;4976894;28;20061;-73
2020/12/27 04:10:57;;;;;;;5.95;3.17;;;8.50;71.50;;;;;;4978342;28;20136;-73
2020/12/27 04:13:23;;;;;;;6.20;3.53;;;8.50;71.50;;;;;;4993374;28;20603;-72
2020/12/27 04:15:48;;;;;;;5.38;3.03;;;8.40;71.80;;;;;;4979657;28;20128;-73
2020/12/27 04:18:14;;;;;;;6.00;3.33;;;8.40;71.70;;;;;;5010038;28;20041;-73
2020/12/27 04:20:40;;;;;;;6.10;3.03;;;8.40;72.00;;;;;;4980357;28;20038;-73
2020/12/27 04:23:05;;;;;;;6.57;2.72;;;8.40;72.20;;;;;;4994903;28;20049;-73
2020/12/27 04:25:31;;;;;;;6.13;3.40;;;8.50;72.10;;;;;;4982855;28;20421;-73
2020/12/27 04:27:56;;;;;;;6.35;3.20;;;8.50;71.80;;;;;;5010076;28;20038;-73
2020/12/27 04:30:22;;;;;;;5.78;2.60;;;8.60;71.50;;;;;;4963775;28;20120;-73
2020/12/27 04:32:48;;;;;;;5.93;2.70;;;8.60;71.30;;;;;;5009901;28;20049;-73
2020/12/27 04:35:13;;;;;;;5.40;2.50;;;8.70;71.20;;;;;;4991997;28;20502;-73
2020/12/27 04:37:39;;;;;;;5.65;2.45;;;8.70;71.20;;;;;;5008716;28;20496;-73
2020/12/27 04:40:05;;;;;;;6.38;3.30;;;8.80;71.00;;;;;;4978007;28;20034;-73
2020/12/27 04:42:30;;;;;;;5.72;2.55;;;8.80;70.80;;;;;;5010660;28;20124;-73
2020/12/27 04:44:57;;;;;;;6.35;3.72;;;8.80;70.60;;;;;;5009331;28;20456;-73
2020/12/27 04:47:24;;;;;;;5.80;2.70;;;8.70;70.60;;;;;;5009792;28;20124;-71
2020/12/27 04:49:49;;;;;;;5.82;2.83;;;8.70;71.10;;;;;;4992726;28;20480;-73
2020/12/27 04:52:19;;;;;;;5.90;3.10;;;8.70;71.00;;;;;;4997567;28;20026;-71
2020/12/27 04:54:46;;;;;;;5.68;2.30;;;8.70;70.90;;;;;;5001544;28;20033;-71
2020/12/27 04:57:13;;;;;;;4.60;1.98;;;8.70;71.20;;;;;;5009241;28;20026;-72
2020/12/27 04:59:45;;;;;;;3.60;1.90;;;8.60;71.10;;;;;;5009508;28;20582;-71
2020/12/27 05:02:11;;;;;;;6.93;2.63;;;8.70;71.20;;;;;;4992752;28;20112;-71
2020/12/27 05:04:37;;;;;;;4.95;2.40;;;8.70;71.30;;;;;;5005001;28;20404;-71
2020/12/27 05:07:04;;;;;;;4.50;2.22;;;8.70;71.30;;;;;;5007625;28;20034;-71
2020/12/27 05:09:29;;;;;;;6.03;2.10;;;8.70;71.60;;;;;;4992604;28;20033;-72
2020/12/27 05:11:56;;;;;;;4.82;2.40;;;8.70;71.90;;;;;;5009741;28;20033;-72
2020/12/27 05:14:26;;;;;;;4.40;2.13;;;8.70;72.00;;;;;;5009873;28;20026;-72
2020/12/27 05:16:52;;;;;;;3.70;1.75;;;8.70;71.80;;;;;;5009079;28;20117;-72
2020/12/27 05:19:19;;;;;;;4.22;1.80;;;8.80;72.00;;;;;;4993429;28;20073;-71
2020/12/27 05:21:45;;;;;;;3.55;1.83;;;8.80;71.70;;;;;;5012143;28;20076;-71
2020/12/27 05:24:12;;;;;;;4.13;1.90;;;8.80;72.00;;;;;;5014305;28;20061;-71
2020/12/27 05:26:42;;;;;;;4.13;2.10;;;8.80;72.00;;;;;;5014086;28;20026;-72
2020/12/27 05:29:09;;;;;;;4.80;1.75;;;8.90;72.20;;;;;;4999021;28;20042;-71
2020/12/27 05:31:36;;;;;;;3.10;1.55;;;8.80;72.20;;;;;;5012683;28;20045;-71
2020/12/27 05:34:03;;;;;;;4.10;1.80;;;8.80;72.50;;;;;;4996209;28;20030;-72
2020/12/27 05:36:33;;;;;;;4.07;1.90;;;8.80;72.60;;;;;;4995996;28;20026;-72
2020/12/27 05:38:59;;;;;;;2.88;1.60;;;8.80;72.80;;;;;;5013503;28;20026;-72
2020/12/27 05:41:26;;;;;;;3.42;1.50;;;8.80;72.90;;;;;;5012287;28;20364;-72
2020/12/27 05:44:10;;;;;;;3.65;1.80;;;8.80;73.00;;;;;;5013963;28;20084;-72
2020/12/27 05:46:36;;;;;;;3.50;1.70;;;8.80;73.20;;;;;;5011955;28;20042;-72
2020/12/27 05:49:01;;;;;;;3.47;1.98;;;8.70;73.50;;;;;;5012808;28;20029;-71
2020/12/27 05:51:33;;;;;;;4.25;1.60;;;8.80;73.40;;;;;;5012664;28;20488;-72
2020/12/27 05:54:06;;;;;;;3.58;1.50;;;8.80;73.70;;;;;;5012737;28;20033;-72
2020/12/27 05:56:37;;;;;;;3.17;1.38;;;8.80;73.70;;;;;;4994276;28;20076;-71
2020/12/27 05:59:04;;;;;;;3.05;1.50;;;8.80;73.90;;;;;;4997007;28;20029;-72
2020/12/27 06:01:35;;;;;;;2.95;1.30;;;8.60;74.20;;;;;;5011653;28;20030;-72
2020/12/27 06:04:02;;;;;;;2.22;1.38;;;8.50;74.60;;;;;;4995731;28;20360;-71
2020/12/27 06:07:00;;;;;;;2.78;1.30;;;8.60;74.70;;;;;;5011212;28;20030;-71
2020/12/27 06:10:05;;;;;;;2.38;1.20;;;8.70;74.60;;;;;;4975875;28;20479;-71
2020/12/27 06:13:03;;;;;;;2.42;1.33;;;8.70;74.60;;;;;;4988031;28;20345;-72
2020/12/27 06:15:30;;;;;;;2.30;1.17;;;8.50;74.70;;;;;;5010557;28;20029;-72
2020/12/27 06:17:58;;;;;;;2.75;1.27;;;8.60;75.20;;;;;;5012738;28;20187;-72
2020/12/27 06:20:35;;;;;;;3.00;1.23;;;8.60;75.30;;;;;;5011295;28;20026;-72
2020/12/27 06:23:01;;;;;;;3.13;1.25;;;8.60;75.30;;;;;;4995788;28;20072;-72
2020/12/27 06:25:28;;;;;;;4.78;1.67;;;8.60;75.60;;;;;;5012645;28;20030;-71
2020/12/27 06:27:55;;;;;;;4.13;1.40;;;8.60;75.60;;;;;;5012320;28;20053;-71
2020/12/27 06:30:23;;;;;;;4.00;1.40;;;8.50;75.80;;;;;;5011002;28;20033;-71
2020/12/27 06:32:56;;;;;;;3.00;1.02;;;8.60;75.60;;;;;;5010662;28;20181;-72
2020/12/27 06:35:43;;;;;;;2.92;1.10;;;8.50;75.80;;;;;;4994367;28;20047;-72
2020/12/27 06:38:23;;;;;;;3.15;1.30;;;8.60;75.80;;;;;;5006865;28;20054;-71
2020/12/27 06:40:58;;;;;;;2.28;0.85;;;8.70;75.90;;;;;;5011507;28;20045;-71
2020/12/27 06:43:25;;;;;;;3.05;1.00;;;8.60;75.70;;;;;;5011710;28;20107;-71
2020/12/27 06:45:51;;;;;;;2.33;1.20;;;8.60;76.20;;;;;;4995369;28;20091;-71
2020/12/27 06:48:34;;;;;;;2.53;1.38;;;8.60;76.30;;;;;;5011547;28;20040;-71
2020/12/27 06:51:00;;;;;;;5.05;2.38;;;8.60;76.40;;;;;;5011144;28;20108;-71
2020/12/27 06:53:43;;;;;;;1.75;0.98;;;8.60;76.60;;;;;;4998964;28;20038;-72
2020/12/27 06:56:18;;;;;;;2.80;1.10;;;8.50;76.70;;;;;;4994218;28;20505;-73
2020/12/27 06:59:01;;;;;;;3.40;0.90;;;8.50;77.20;;;;;;5002952;28;20061;-71
2020/12/27 07:01:26;;;;;;;2.43;1.10;;;8.50;77.50;;;;;;5010944;28;20045;-71
2020/12/27 07:04:16;;;;;;;2.00;1.10;;;8.40;77.10;;;;;;4998907;28;20065;-71
2020/12/27 07:06:46;;;;;;;2.40;1.08;;;8.40;77.40;;;;;;5010995;28;20029;-72
2020/12/27 07:09:25;;;;;;;2.00;0.85;;;8.50;77.70;;;;;;5004686;28;20042;-71
2020/12/27 07:12:08;;;;;;;1.45;0.93;;;8.50;77.40;;;;;;4996782;28;20065;-71
2020/12/27 07:14:43;;;;;;;2.60;0.90;;;8.50;77.70;;;;;;5005651;28;20411;-71
2020/12/27 07:17:10;;;;;;;2.03;1.00;;;8.50;77.50;;;;;;5010621;28;20038;-71
2020/12/27 07:19:37;;;;;;;1.85;0.80;;;8.50;77.50;;;;;;4975861;28;20120;-71
2020/12/27 07:22:05;;;;;;;3.00;1.20;;;8.50;77.60;;;;;;5005233;28;20049;-71
2020/12/27 07:24:34;;;;;;;1.45;0.80;;;8.60;77.90;;;;;;5007787;28;20030;-71
2020/12/27 07:27:03;;;;;;;2.08;1.02;;;8.60;77.40;;;;;;5010893;28;20149;-72
2020/12/27 07:29:29;;;;;;;2.05;1.13;;;8.70;77.50;;;;;;4995140;28;20131;-71
2020/12/27 07:31:55;;;;;;;1.58;0.93;;;8.50;77.40;;;;;;5010697;28;20053;-71
2020/12/27 07:34:25;;;;;;;1.67;0.95;;;8.60;77.50;;;;;;4993743;28;20041;-71
2020/12/27 07:37:09;;;;;;;1.60;0.90;;;8.70;77.30;;;;;;5008910;28;20038;-72
2020/12/27 07:39:52;;;;;;;2.83;1.38;;;8.70;77.20;;;;;;5010201;28;20503;-71
2020/12/27 07:42:28;;;;;;;2.42;0.77;;;8.70;77.10;;;;;;4993561;28;20036;-71
2020/12/27 07:44:57;;;;;;;2.30;1.00;;;8.70;77.00;;;;;;5012043;28;20025;-71
2020/12/27 07:47:23;;;;;;;2.03;1.05;;;8.70;76.70;;;;;;5006958;28;20037;-71
2020/12/27 07:50:07;;;;;;;2.53;1.40;;;8.80;76.40;;;;;;5011781;28;20080;-73
2020/12/27 07:52:55;;;;;;;1.95;1.15;;;8.90;76.20;;;;;;4993684;28;20033;-71
2020/12/27 07:55:34;;;;;;;2.55;0.90;;;8.80;75.90;;;;;;5002391;28;20823;-71
2020/12/27 07:58:05;;;;;;;3.15;1.30;;;8.80;76.20;;;;;;5001241;28;20113;-71
2020/12/27 08:00:36;;;;;;;1.23;0.60;;;8.90;76.20;;;;;;4993129;28;20101;-71
2020/12/27 08:03:06;;;;;;;0.90;0.70;;;8.90;75.80;;;;;;5008684;28;20140;-72
2020/12/27 08:05:33;;;;;;;3.58;1.45;;;8.90;76.10;;;;;;4990139;28;20029;-71
2020/12/27 08:08:07;;;;;;;3.63;1.55;;;8.80;76.00;;;;;;5009602;28;20096;-71
2020/12/27 08:10:33;;;;;;;3.17;1.23;;;8.80;75.80;;;;;;5004070;28;20049;-71
2020/12/27 08:13:00;;;;;;;2.70;0.95;;;8.80;75.70;;;;;;4995374;28;20034;-71
2020/12/27 08:15:27;;;;;;;0.70;0.60;;;8.80;75.90;;;;;;4986353;28;20090;-72
2020/12/27 08:18:23;;;;;;;4.22;1.75;;;8.80;75.80;;;;;;4986976;28;20084;-72
2020/12/27 08:20:50;;;;;;;1.67;0.80;;;8.80;75.60;;;;;;4990347;28;20117;-72
2020/12/27 08:23:16;;;;;;;1.35;0.80;;;8.90;75.60;;;;;;4994617;28;20042;-72
2020/12/27 08:25:42;;;;;;;0.80;0.68;;;8.90;75.10;;;;;;5010939;28;20083;-72
2020/12/27 08:28:14;;;;;;;1.52;0.85;;;8.90;74.80;;;;;;5010855;28;20033;-72
2020/12/27 08:30:40;;;;;;;1.15;0.77;;;8.90;75.20;;;;;;5010648;28;20025;-72
2020/12/27 08:33:08;;;;;;;2.05;1.00;;;9.00;75.20;;;;;;5010014;28;20057;-72
2020/12/27 08:35:35;;;;;;;2.33;1.10;;;9.10;75.00;;;;;;5009330;28;20034;-72
2020/12/27 08:38:19;;;;;;;1.90;0.80;;;9.00;74.50;;;;;;5009293;28;20503;-72
2020/12/27 08:40:47;;;;;;;1.85;0.90;;;9.10;74.50;;;;;;4991499;28;20034;-73
2020/12/27 08:43:40;;;;;;;1.48;0.80;;;9.10;74.40;;;;;;5009570;28;20034;-73
2020/12/27 08:46:11;;;;;;;2.97;1.10;;;9.00;74.50;;;;;;4997275;28;20084;-74
2020/12/27 08:48:43;;;;;;;2.25;0.50;;;9.10;74.30;;;;;;5010651;28;20440;-73
2020/12/27 08:51:13;;;;;;;7.57;3.35;;;9.20;74.40;;;;;;5010175;28;20559;-73
2020/12/27 08:53:44;;;;;;;1.63;0.90;;;9.20;74.20;;;;;;4997987;28;20387;-73
2020/12/27 08:56:11;;;;;;;2.38;1.10;;;9.20;74.20;;;;;;5006351;28;20041;-73
2020/12/27 08:58:37;;;;;;;1.38;0.82;;;9.10;74.40;;;;;;5007546;28;20105;-73
2020/12/27 09:01:20;;;;;;;1.35;0.90;;;9.10;74.90;;;;;;4972068;28;20548;-74
2020/12/27 09:03:45;;;;;;;1.08;0.75;;;9.10;75.10;;;;;;4991529;28;20053;-74
2020/12/27 09:06:14;;;;;;;1.30;0.75;;;9.10;75.30;;;;;;4983545;28;20034;-74
2020/12/27 09:08:40;;;;;;;1.20;0.82;;;9.20;75.40;;;;;;5016876;28;20482;-73
2020/12/27 09:11:05;;;;;;;0.88;0.70;;;9.10;75.60;;;;;;4968957;28;20050;-73
2020/12/27 09:13:36;;;;;;;1.98;0.70;;;9.10;75.60;;;;;;4992730;28;20030;-73
2020/12/27 09:16:01;;;;;;;1.83;0.80;;;9.10;76.10;;;;;;5007299;28;20030;-73
2020/12/27 09:18:28;;;;;;;1.08;0.70;;;9.10;76.20;;;;;;5014826;28;20033;-73
2020/12/27 09:21:05;;;;;;;1.65;0.90;;;9.00;76.40;;;;;;5000843;28;20065;-73
2020/12/27 09:23:32;;;;;;;1.52;0.95;;;9.00;76.70;;;;;;4992356;28;20121;-73
2020/12/27 09:26:10;;;;;;;1.80;0.90;;;9.00;76.50;;;;;;4975108;28;20494;-73
2020/12/27 09:28:38;;;;;;;6.63;1.67;;;9.10;76.20;;;;;;5006766;28;20018;-72
2020/12/27 09:31:09;;;;;;;1.95;0.98;;;9.10;76.30;;;;;;4991676;28;20018;-72
2020/12/27 09:33:46;;;;;;;1.63;0.95;;;9.10;76.10;;;;;;5009588;28;20038;-72
2020/12/27 09:36:12;;;;;;;1.85;1.10;;;9.10;76.40;;;;;;5006447;28;20116;-73
2020/12/27 09:38:43;;;;;;;6.63;1.95;;;9.20;76.30;;;;;;5002414;28;20105;-72
2020/12/27 09:41:13;;;;;;;2.30;1.00;;;9.20;75.80;;;;;;4989584;28;20527;-73
2020/12/27 09:43:49;;;;;;;1.92;1.00;;;9.20;75.80;;;;;;4998835;28;20104;-73
2020/12/27 09:46:40;;;;;;;1.80;1.15;;;9.20;75.80;;;;;;5007712;28;20476;-72
2020/12/27 09:49:26;;;;;;;1.95;0.98;;;9.20;75.70;;;;;;5006618;28;20589;-72
2020/12/27 09:52:13;;;;;;;1.85;0.77;;;9.20;76.00;;;;;;5004578;28;20034;-72
2020/12/27 09:54:43;;;;;;;1.67;1.08;;;9.20;76.20;;;;;;4998744;28;20029;-73
2020/12/27 09:57:16;;;;;;;1.15;0.80;;;9.20;76.40;;;;;;5007607;28;20050;-72
2020/12/27 09:59:43;;;;;;;1.33;0.80;;;9.20;76.20;;;;;;5005384;28;20029;-72
2020/12/27 10:02:08;;;;;;;1.75;0.88;;;9.20;76.50;;;;;;4999706;28;20092;-72
2020/12/27 10:04:34;;;;;;;2.03;0.85;;;9.10;76.60;;;;;;5003571;28;20121;-72
2020/12/27 10:07:00;;;;;;;1.73;0.90;;;9.10;76.70;;;;;;5006430;28;20421;-72
2020/12/27 10:09:25;;;;;;;2.53;1.10;;;9.20;77.10;;;;;;5003290;28;20045;-72
2020/12/27 10:11:51;;;;;;;1.58;0.80;;;9.20;76.80;;;;;;5004769;28;20040;-72
2020/12/27 10:14:17;;;;;;;2.58;1.00;;;9.30;76.80;;;;;;5000483;28;20031;-73
2020/12/27 10:16:43;;;;;;;2.50;0.90;;;9.20;76.50;;;;;;5004633;28;20113;-73
2020/12/27 10:19:09;;;;;;;1.27;0.80;;;9.20;76.90;;;;;;5010452;28;20029;-73
2020/12/27 10:21:35;;;;;;;1.92;0.63;;;9.20;76.60;;;;;;4990724;28;20026;-73
2020/12/27 10:24:00;;;;;;;2.17;1.17;;;9.20;76.60;;;;;;5010244;28;20452;-74
2020/12/27 10:26:26;;;;;;;1.38;0.88;;;9.10;76.40;;;;;;5008631;28;20042;-73
2020/12/27 10:28:52;;;;;;;0.95;0.70;;;9.10;77.20;;;;;;4990496;28;20429;-73
2020/12/27 10:31:17;;;;;;;1.23;0.98;;;9.10;77.20;;;;;;5009405;28;20455;-73
2020/12/27 10:33:43;;;;;;;0.73;0.73;;;9.00;77.50;;;;;;5012893;28;20042;-72
2020/12/27 10:36:09;;;;;;;1.15;0.70;;;9.10;76.70;;;;;;5008867;28;20034;-72
2020/12/27 10:38:34;;;;;;;1.17;0.80;;;9.10;77.00;;;;;;5009682;28;20820;-74
2020/12/27 10:41:01;;;;;;;1.67;0.90;;;9.20;76.90;;;;;;5008168;28;20065;-73
2020/12/27 10:43:27;;;;;;;2.65;0.90;;;9.10;77.00;;;;;;5009095;28;20041;-73
2020/12/27 10:46:03;;;;;;;1.35;0.90;;;9.10;76.80;;;;;;5013861;28;20036;-74
2020/12/27 10:48:30;;;;;;;1.63;0.98;;;9.10;76.70;;;;;;5007827;28;20383;-75
2020/12/27 10:50:57;;;;;;;1.17;0.90;;;9.20;76.60;;;;;;5006166;28;20040;-75
2020/12/27 10:53:23;;;;;;;1.73;0.73;;;9.20;76.50;;;;;;5002064;28;20046;-78
2020/12/27 10:55:49;;;;;;;2.25;0.80;;;9.10;76.40;;;;;;5007629;28;20030;-78
2020/12/27 10:58:15;;;;;;;2.08;1.00;;;9.20;76.50;;;;;;5011463;28;20112;-73
2020/12/27 11:00:43;;;;;;;1.25;0.80;;;9.20;76.50;;;;;;5011708;28;20030;-78
2020/12/27 11:03:09;;;;;;;1.65;1.00;;;9.20;76.50;;;;;;5012301;28;20052;-81
2020/12/27 11:05:34;;;;;;;0.82;0.70;;;9.20;76.40;;;;;;4997189;28;20030;-78
2020/12/27 11:08:00;;;;;;;0.57;0.50;;;9.20;76.10;;;;;;4992684;28;20380;-78
2020/12/27 11:10:25;;;;;;;1.25;0.70;;;9.30;76.20;;;;;;5011712;28;20053;-76
2020/12/27 11:12:51;;;;;;;2.05;0.75;;;9.30;76.20;;;;;;5011095;28;20034;-77
2020/12/27 11:15:17;;;;;;;0.50;0.50;;;9.30;75.80;;;;;;4994028;28;20121;-77
2020/12/27 11:17:43;;;;;;;0.75;0.57;;;9.40;75.40;;;;;;4999426;28;20444;-75
2020/12/27 11:20:13;;;;;;;1.52;0.63;;;9.40;75.60;;;;;;5001110;28;20121;-76
2020/12/27 11:22:42;;;;;;;0.95;0.60;;;9.50;75.30;;;;;;5011939;28;20045;-77
2020/12/27 11:25:09;;;;;;;1.05;0.75;;;9.50;75.10;;;;;;5010465;28;20062;-75
2020/12/27 11:27:35;;;;;;;1.23;0.80;;;9.40;75.10;;;;;;5010956;28;20085;-79
2020/12/27 11:30:01;;;;;;;1.75;0.70;;;9.30;75.00;;;;;;5010928;28;20424;-77
2020/12/27 11:32:27;;;;;;;1.95;0.50;;;9.80;75.50;;;;;;5009410;28;20049;-79
2020/12/27 11:34:53;;;;;;;1.20;0.43;;;9.40;75.00;;;;;;4993668;28;20321;-77
2020/12/27 11:37:19;;;;;;;0.95;0.70;;;9.40;75.00;;;;;;5008941;28;20033;-76
2020/12/27 11:39:44;;;;;;;0.77;0.40;;;9.30;75.10;;;;;;5011147;28;20029;-73
2020/12/27 11:42:10;;;;;;;0.80;0.60;;;9.30;75.00;;;;;;5009671;28;20073;-70
2020/12/27 11:44:36;;;;;;;0.80;0.68;;;9.30;74.70;;;;;;5010740;28;20030;-74
2020/12/27 11:47:05;;;;;;;1.15;0.73;;;9.40;74.70;;;;;;5001150;28;20034;-73
2020/12/27 11:49:31;;;;;;;1.67;1.00;;;9.40;74.30;;;;;;5008621;28;20111;-72
2020/12/27 11:51:57;;;;;;;4.68;1.63;;;9.50;74.10;;;;;;4975844;28;20061;-73
2020/12/27 11:54:23;;;;;;;3.20;1.13;;;9.60;74.20;;;;;;4991005;28;20639;-81
2020/12/27 11:56:48;;;;;;;1.38;0.90;;;9.60;74.00;;;;;;5007099;28;20030;-74
2020/12/27 11:59:14;;;;;;;2.22;1.00;;;9.60;73.90;;;;;;5005705;28;20033;-76
2020/12/27 12:01:45;;;;;;;1.13;0.70;;;9.60;72.90;;;;;;4989778;28;20036;-75
2020/12/27 12:04:11;;;;;;;1.92;1.00;;;9.60;73.20;;;;;;5009224;28;20160;-75
2020/12/27 12:06:36;;;;;;;2.00;0.80;;;9.60;73.00;;;;;;5002215;28;20101;-74
2020/12/27 12:09:02;;;;;;;2.05;0.90;;;9.70;73.10;;;;;;4991718;28;20037;-75
2020/12/27 12:11:39;;;;;;;1.17;0.70;;;9.70;73.00;;;;;;5009513;28;20030;-75
2020/12/27 12:14:05;;;;;;;2.55;0.77;;;9.60;73.00;;;;;;5001852;28;20161;-73
2020/12/27 12:16:31;;;;;;;1.70;0.90;;;9.60;72.10;;;;;;5006108;28;20040;-78
2020/12/27 12:18:58;;;;;;;1.20;0.80;;;9.70;72.20;;;;;;4989841;28;20038;-82
2020/12/27 12:21:25;;;;;;;1.70;0.90;;;9.70;72.10;;;;;;5008150;28;20030;-76
2020/12/27 12:23:50;;;;;;;0.73;0.73;;;9.70;71.90;;;;;;5008986;28;20044;-78
2020/12/27 12:26:42;;;;;;;1.17;0.60;;;9.60;72.10;;;;;;5003867;28;20034;-78
2020/12/27 12:29:08;;;;;;;1.35;0.65;;;9.70;71.90;;;;;;5003482;28;20388;-85
2020/12/27 12:31:33;;;;;;;8.85;1.35;;;9.70;72.10;;;;;;4991464;28;20088;-78
2020/12/27 12:33:59;;;;;;;0.93;0.57;;;9.80;72.00;;;;;;5010173;28;20045;-76
2020/12/27 12:36:26;;;;;;;0.85;0.70;;;9.80;71.70;;;;;;5010490;28;20215;-81
2020/12/27 12:38:52;;;;;;;0.60;0.60;;;9.80;71.40;;;;;;5010037;28;20098;-80
2020/12/27 12:41:25;;;;;;;1.83;0.65;;;9.90;71.20;;;;;;4985552;28;20532;-82
2020/12/27 12:43:51;;;;;;;1.08;0.60;;;9.90;70.50;;;;;;4995245;28;20200;-79
2020/12/27 12:46:18;;;;;;;1.23;0.60;;;9.90;71.10;;;;;;5009922;28;20484;-82
2020/12/27 12:48:45;;;;;;;1.20;0.73;;;10.00;70.90;;;;;;4979213;28;20030;-84
2020/12/27 12:51:11;;;;;;;1.98;0.50;;;10.00;70.70;;;;;;5008995;28;20026;-80
2020/12/27 12:53:37;;;;;;;0.60;0.50;;;10.00;70.60;;;;;;4992858;28;20164;-81
2020/12/27 12:56:04;;;;;;;1.17;0.47;;;9.90;70.70;;;;;;5010799;28;20050;-81
2020/12/27 12:58:30;;;;;;;1.35;0.50;;;10.00;70.60;;;;;;4983543;28;20030;-84
2020/12/27 13:00:55;;;;;;;1.08;0.60;;;9.90;70.60;;;;;;5012221;28;20048;-84
2020/12/27 13:03:22;;;;;;;1.20;0.60;;;9.90;70.80;;;;;;4997766;28;20076;-84
2020/12/27 13:05:47;;;;;;;0.80;0.55;;;9.90;70.60;;;;;;5018288;28;20037;-88